createdAt,value
2022-10-22T00:01:37.883Z,99880.09
2022-10-22T00:04:07.459Z,99878.18
2022-10-22T00:06:36.248Z,99879.94
2022-10-22T00:09:05.157Z,99890.97
2022-10-22T00:11:33.999Z,99893.09
2022-10-22T00:14:02.991Z,99890.67
2022-10-22T00:16:31.765Z,99883.99
2022-10-22T00:19:00.411Z,99884.02
2022-10-22T00:21:30.575Z,99884.96
2022-10-22T00:23:59.884Z,99888.29
2022-10-22T00:26:28.833Z,99884.83
2022-10-22T00:28:57.569Z,99880.86
2022-10-22T00:31:26.405Z,99876.09
2022-10-22T00:33:55.314Z,99875.25
2022-10-22T00:36:24.041Z,99871.14
2022-10-22T00:38:53.132Z,99867.46
2022-10-22T00:41:21.997Z,99864.33
2022-10-22T00:44:00.001Z,99865.27
2022-10-22T00:46:28.766Z,99865.34
2022-10-22T00:48:59.581Z,99866.52
2022-10-22T00:51:33.048Z,99862.14
2022-10-22T00:54:07.271Z,99863.55
2022-10-22T00:56:35.874Z,99855.87
2022-10-22T00:59:05.382Z,99853.73
2022-10-22T01:01:34.089Z,99846.86
2022-10-22T01:04:02.987Z,99847.82
2022-10-22T01:06:33.478Z,99838.89
2022-10-22T01:09:15.214Z,99836.81
2022-10-22T01:11:54.667Z,99837.23
2022-10-22T01:14:34.456Z,99833.16
2022-10-22T01:17:08.439Z,99834.25
2022-10-22T01:19:58.787Z,99835.83
2022-10-22T01:22:32.796Z,99841.91
2022-10-22T01:25:09.109Z,99842.11
2022-10-22T01:27:49.172Z,99846.95
2022-10-22T01:30:19.705Z,99857.73
2022-10-22T01:32:53.560Z,99862.89
2022-10-22T01:35:26.934Z,99854.42
2022-10-22T01:37:58.868Z,99842.48
2022-10-22T01:40:29.172Z,99840.79
2022-10-22T01:43:00.282Z,99852.13
2022-10-22T01:45:33.186Z,99847.78
2022-10-22T01:48:11.070Z,99840.80
2022-10-22T01:50:56.293Z,99839.30
2022-10-22T01:53:33.119Z,99840.19
2022-10-22T01:56:15.442Z,99835.64
2022-10-22T01:58:52.647Z,99840.98
2022-10-22T02:01:27.430Z,99843.55
2022-10-22T02:04:00.544Z,99838.69
2022-10-22T02:06:32.281Z,99835.16
2022-10-22T02:09:02.830Z,99837.67
2022-10-22T02:11:32.394Z,99835.70
2022-10-22T02:14:04.160Z,99834.02
2022-10-22T02:16:36.634Z,99825.51
2022-10-22T02:19:15.570Z,99825.43
2022-10-22T02:21:44.835Z,99827.08
2022-10-22T02:24:13.808Z,99829.30
2022-10-22T02:26:53.052Z,99833.34
2022-10-22T02:29:26.804Z,99829.36
2022-10-22T02:31:58.489Z,99832.02
2022-10-22T02:34:31.099Z,99831.56
2022-10-22T02:37:02.230Z,99821.94
2022-10-22T02:39:32.518Z,99825.65
2022-10-22T02:42:02.590Z,99827.66
2022-10-22T02:44:31.444Z,99829.55
2022-10-22T02:47:00.722Z,99829.64
2022-10-22T02:49:29.968Z,99818.74
2022-10-22T02:51:59.283Z,99814.77
2022-10-22T02:54:28.715Z,99813.83
2022-10-22T02:56:57.612Z,99812.61
2022-10-22T02:59:26.340Z,99800.20
2022-10-22T03:01:55.433Z,99794.13
2022-10-22T03:04:24.172Z,99793.88
2022-10-22T03:06:52.951Z,99802.77
2022-10-22T03:09:24.125Z,99814.69
2022-10-22T03:11:53.816Z,99825.31
2022-10-22T03:14:22.605Z,99834.72
2022-10-22T03:16:52.226Z,99838.81
2022-10-22T03:19:21.050Z,99846.39
2022-10-22T03:21:53.887Z,99844.40
2022-10-22T03:24:27.545Z,99844.26
2022-10-22T03:27:18.735Z,99835.13
2022-10-22T03:30:06.835Z,99828.12
2022-10-22T03:32:35.644Z,99822.16
2022-10-22T03:35:05.607Z,99825.60
2022-10-22T03:37:36.282Z,99832.21
2022-10-22T03:40:07.630Z,99823.41
2022-10-22T03:42:36.541Z,99803.90
2022-10-22T03:45:06.672Z,99806.17
2022-10-22T03:47:36.531Z,99811.36
2022-10-22T03:50:06.730Z,99811.48
2022-10-22T03:52:38.356Z,99817.89
2022-10-22T03:55:10.591Z,99807.91
2022-10-22T03:57:39.489Z,99803.00
2022-10-22T04:00:11.598Z,99796.60
2022-10-22T04:02:40.340Z,99793.43
2022-10-22T04:05:11.234Z,99796.98
2022-10-22T04:07:40.425Z,99795.92
2022-10-22T04:10:10.970Z,99792.15
2022-10-22T04:12:39.899Z,99785.17
2022-10-22T04:15:10.885Z,99791.70
2022-10-22T04:17:39.966Z,99786.88
2022-10-22T04:20:10.933Z,99788.32
2022-10-22T04:22:39.735Z,99791.41
2022-10-22T04:25:09.158Z,99794.91
2022-10-22T04:27:38.164Z,99798.45
2022-10-22T04:30:09.327Z,99798.23
2022-10-22T04:32:38.077Z,99797.19
2022-10-22T04:35:08.826Z,99796.93
2022-10-22T04:37:37.933Z,99796.27
2022-10-22T04:40:11.110Z,99792.27
2022-10-22T04:42:39.661Z,99797.38
2022-10-22T04:45:11.861Z,99799.28
2022-10-22T04:47:40.785Z,99795.52
2022-10-22T04:50:11.173Z,99789.73
2022-10-22T04:52:40.028Z,99785.16
2022-10-22T04:55:09.901Z,99786.61
2022-10-22T04:57:38.739Z,99785.69
2022-10-22T05:00:12.220Z,99793.63
2022-10-22T05:02:44.239Z,99795.98
2022-10-22T05:05:13.049Z,99792.58
2022-10-22T05:07:43.518Z,99790.81
2022-10-22T05:10:12.973Z,99794.47
2022-10-22T05:12:41.562Z,99794.63
2022-10-22T05:15:13.336Z,99790.19
2022-10-22T05:17:42.189Z,99781.38
2022-10-22T05:20:12.232Z,99781.02
2022-10-22T05:22:41.035Z,99780.78
2022-10-22T05:25:11.827Z,99786.98
2022-10-22T05:27:40.726Z,99788.92
2022-10-22T05:30:12.358Z,99788.77
2022-10-22T05:32:41.170Z,99783.98
2022-10-22T05:35:10.667Z,99786.31
2022-10-22T05:37:39.601Z,99777.04
2022-10-22T05:40:26.550Z,99775.90
2022-10-22T05:42:56.507Z,99786.96
2022-10-22T05:45:25.851Z,99795.26
2022-10-22T05:47:54.943Z,99795.75
2022-10-22T05:50:23.900Z,99797.77
2022-10-22T05:52:53.215Z,99801.84
2022-10-22T05:55:21.934Z,99797.76
2022-10-22T05:57:50.534Z,99805.52
2022-10-22T06:00:20.334Z,99799.73
2022-10-22T06:02:51.536Z,99803.73
2022-10-22T06:05:21.337Z,99807.88
2022-10-22T06:07:50.153Z,99806.23
2022-10-22T06:10:21.371Z,99799.92
2022-10-22T06:12:50.747Z,99799.38
2022-10-22T06:15:20.723Z,99813.76
2022-10-22T06:17:49.742Z,99817.95
2022-10-22T06:20:19.198Z,99814.56
2022-10-22T06:22:48.305Z,99809.97
2022-10-22T06:25:18.563Z,99811.89
2022-10-22T06:27:51.671Z,99820.58
2022-10-22T06:30:20.947Z,99820.48
2022-10-22T06:32:50.336Z,99827.94
2022-10-22T06:35:19.659Z,99830.39
2022-10-22T06:37:48.519Z,99834.04
2022-10-22T06:40:19.074Z,99836.04
2022-10-22T06:42:48.115Z,99848.48
2022-10-22T06:45:18.103Z,99870.56
2022-10-22T06:47:47.473Z,99878.90
2022-10-22T06:50:16.309Z,99878.16
2022-10-22T06:52:46.214Z,99877.25
2022-10-22T06:55:15.244Z,99876.05
2022-10-22T06:57:45.057Z,99870.17
2022-10-22T07:00:15.777Z,99861.42
2022-10-22T07:02:44.417Z,99850.88
2022-10-22T07:05:13.090Z,99844.36
2022-10-22T07:07:41.829Z,99841.42
2022-10-22T07:10:11.344Z,99841.48
2022-10-22T07:12:41.366Z,99842.58
2022-10-22T07:15:12.604Z,99842.94
2022-10-22T07:17:41.441Z,99854.89
2022-10-22T07:20:12.665Z,99854.57
2022-10-22T07:22:41.781Z,99858.73
2022-10-22T07:25:12.794Z,99867.84
2022-10-22T07:27:41.935Z,99872.99
2022-10-22T07:30:24.084Z,99877.89
2022-10-22T07:32:52.704Z,99876.34
2022-10-22T07:35:21.504Z,99876.05
2022-10-22T07:37:50.436Z,99876.23
2022-10-22T07:40:20.196Z,99872.27
2022-10-22T07:42:48.900Z,99874.38
2022-10-22T07:45:17.772Z,99869.92
2022-10-22T07:47:48.239Z,99882.83
2022-10-22T07:50:17.980Z,99881.36
2022-10-22T07:52:46.845Z,99877.98
2022-10-22T07:55:16.926Z,99888.50
2022-10-22T07:57:46.861Z,99895.50
2022-10-22T08:00:20.586Z,99898.92
2022-10-22T08:02:52.215Z,99898.97
2022-10-22T08:05:21.185Z,99892.16
2022-10-22T08:07:50.669Z,99885.92
2022-10-22T08:10:21.200Z,99888.53
2022-10-22T08:12:49.864Z,99889.71
2022-10-22T08:15:19.700Z,99877.61
2022-10-22T08:17:48.361Z,99873.23
2022-10-22T08:20:17.391Z,99880.79
2022-10-22T08:22:46.636Z,99881.41
2022-10-22T08:25:16.107Z,99877.87
2022-10-22T08:27:45.493Z,99889.60
2022-10-22T08:30:15.763Z,99894.38
2022-10-22T08:32:49.337Z,99891.59
2022-10-22T08:35:21.106Z,99895.52
2022-10-22T08:37:50.515Z,99899.95
2022-10-22T08:40:28.793Z,99906.64
2022-10-22T08:43:30.689Z,99909.23
2022-10-22T08:46:10.620Z,99904.17
2022-10-22T08:48:46.050Z,99905.40
2022-10-22T08:51:18.293Z,99911.48
2022-10-22T08:54:03.239Z,99913.18
2022-10-22T08:56:33.100Z,99915.61
2022-10-22T08:59:11.859Z,99916.38
2022-10-22T09:01:43.930Z,99913.56
2022-10-22T09:04:24.934Z,99906.39
2022-10-22T09:06:56.006Z,99908.05
2022-10-22T09:09:29.611Z,99907.30
2022-10-22T09:12:00.927Z,99903.15
2022-10-22T09:14:30.122Z,99904.33
2022-10-22T09:17:14.270Z,99898.96
2022-10-22T09:19:54.354Z,99894.81
2022-10-22T09:25:19.787Z,99894.86
2022-10-22T09:27:49.370Z,99894.20
2022-10-22T09:30:20.977Z,99888.25
2022-10-22T09:32:55.105Z,99888.09
2022-10-22T09:35:25.701Z,99884.98
2022-10-22T09:37:56.900Z,99890.15
2022-10-22T09:40:25.779Z,99901.11
2022-10-22T09:42:54.433Z,99907.52
2022-10-22T09:45:26.399Z,99907.08
2022-10-22T09:48:10.648Z,99903.89
2022-10-22T09:50:44.177Z,99900.26
2022-10-22T09:53:20.378Z,99900.04
2022-10-22T09:55:53.795Z,99910.67
2022-10-22T09:58:23.237Z,99920.91
2022-10-22T10:00:56.268Z,99919.78
2022-10-22T10:03:27.878Z,99922.03
2022-10-22T10:06:02.916Z,99920.58
2022-10-22T10:08:34.737Z,99919.43
2022-10-22T10:11:11.140Z,99916.18
2022-10-22T10:13:49.965Z,99911.30
2022-10-22T10:16:32.269Z,99901.16
2022-10-22T10:19:20.400Z,99905.13
2022-10-22T10:22:00.597Z,99914.31
2022-10-22T10:24:42.889Z,99922.69
2022-10-22T10:27:20.563Z,99930.09
2022-10-22T10:30:00.671Z,99931.96
2022-10-22T10:32:48.327Z,99937.85
2022-10-22T10:35:26.007Z,99939.66
2022-10-22T10:38:09.662Z,99937.30
2022-10-22T10:40:46.379Z,99936.46
2022-10-22T10:43:22.127Z,99925.52
2022-10-22T10:46:02.787Z,99920.12
2022-10-22T10:48:45.551Z,99913.26
2022-10-22T10:51:36.683Z,99909.42
2022-10-22T10:54:16.646Z,99903.39
2022-10-22T10:56:51.585Z,99904.51
2022-10-22T10:59:30.412Z,99901.45
2022-10-22T11:02:17.288Z,99902.39
2022-10-22T11:05:08.386Z,99905.83
2022-10-22T11:07:42.199Z,99907.46
2022-10-22T11:10:24.988Z,99910.63
2022-10-22T11:13:03.829Z,99911.41
2022-10-22T11:15:35.338Z,99907.47
2022-10-22T11:18:12.979Z,99904.90
2022-10-22T11:21:07.716Z,99903.61
2022-10-22T11:23:41.275Z,99898.83
2022-10-22T11:26:17.567Z,99898.11
2022-10-22T11:28:51.933Z,99892.19
2022-10-22T11:31:25.124Z,99891.07
2022-10-22T11:34:28.474Z,99883.90
2022-10-22T11:36:54.847Z,99885.34
2022-10-22T11:39:34.818Z,99885.80
2022-10-22T11:42:06.373Z,99884.48
2022-10-22T11:44:47.389Z,99884.21
2022-10-22T11:47:24.569Z,99881.70
2022-10-22T11:50:11.646Z,99877.88
2022-10-22T11:52:53.692Z,99877.16
2022-10-22T11:55:46.248Z,99878.83
2022-10-22T11:58:43.474Z,99878.31
2022-10-22T12:01:24.116Z,99877.47
2022-10-22T12:04:13.854Z,99876.27
2022-10-22T12:06:55.305Z,99875.34
2022-10-22T12:09:29.785Z,99875.14
2022-10-22T12:12:15.440Z,99873.30
2022-10-22T12:14:55.513Z,99875.05
2022-10-22T12:17:25.018Z,99879.47
2022-10-22T12:20:02.090Z,99873.73
2022-10-22T12:22:33.551Z,99874.86
2022-10-22T12:25:09.693Z,99866.83
2022-10-22T12:27:40.994Z,99868.01
2022-10-22T12:30:22.106Z,99869.91
2022-10-22T12:32:53.912Z,99866.38
2022-10-22T12:35:25.386Z,99868.88
2022-10-22T12:37:56.609Z,99879.92
2022-10-22T12:40:27.376Z,99882.77
2022-10-22T12:42:58.259Z,99884.42
2022-10-22T12:45:30.544Z,99875.73
2022-10-22T12:48:01.388Z,99881.47
2022-10-22T12:50:37.383Z,99883.35
2022-10-22T12:53:16.876Z,99894.09
2022-10-22T12:56:03.300Z,99886.73
2022-10-22T12:58:38.800Z,99879.17
2022-10-22T13:01:11.828Z,99878.45
2022-10-22T13:03:44.998Z,99880.64
2022-10-22T13:06:23.313Z,99879.73
2022-10-22T13:09:16.499Z,99879.96
2022-10-22T13:11:53.614Z,99874.52
2022-10-22T13:14:28.540Z,99872.64
2022-10-22T13:17:11.549Z,99871.48
2022-10-22T13:19:44.815Z,99866.21
2022-10-22T13:22:34.272Z,99868.69
2022-10-22T13:25:20.849Z,99871.45
2022-10-22T13:27:52.394Z,99868.00
2022-10-22T13:30:24.384Z,99865.27
2022-10-22T13:32:59.832Z,99865.11
2022-10-22T13:35:35.840Z,99873.02
2022-10-22T13:38:14.177Z,99867.02
2022-10-22T13:40:48.037Z,99860.21
2022-10-22T13:43:21.295Z,99858.87
2022-10-22T13:45:54.817Z,99856.39
2022-10-22T13:48:38.330Z,99853.12
2022-10-22T13:51:15.267Z,99848.77
2022-10-22T13:53:45.818Z,99843.69
2022-10-22T13:56:17.969Z,99838.07
2022-10-22T13:58:50.245Z,99835.05
2022-10-22T14:01:22.749Z,99829.16
2022-10-22T14:03:54.254Z,99826.27
2022-10-22T14:06:24.320Z,99827.27
2022-10-22T14:08:58.067Z,99823.73
2022-10-22T14:11:28.048Z,99825.88
2022-10-22T14:13:57.448Z,99827.73
2022-10-22T14:16:31.245Z,99830.36
2022-10-22T14:19:02.386Z,99837.70
2022-10-22T14:21:35.476Z,99848.55
2022-10-22T14:24:06.133Z,99845.88
2022-10-22T14:26:37.036Z,99841.77
2022-10-22T14:29:10.230Z,99840.71
2022-10-22T14:34:16.649Z,99849.11
2022-10-22T14:36:45.433Z,99854.19
2022-10-22T14:39:14.549Z,99857.56
2022-10-22T14:41:43.983Z,99859.80
2022-10-22T14:44:14.432Z,99861.02
2022-10-22T14:46:43.952Z,99860.84
2022-10-22T14:49:13.114Z,99860.73
2022-10-22T14:51:42.100Z,99858.62
2022-10-22T14:54:10.677Z,99858.91
2022-10-22T14:56:39.244Z,99854.91
2022-10-22T14:59:07.956Z,99852.99
2022-10-22T15:01:36.616Z,99850.34
2022-10-22T15:04:05.761Z,99856.01
2022-10-22T15:06:34.451Z,99853.88
2022-10-22T15:09:03.522Z,99857.16
2022-10-22T15:11:32.289Z,99855.87
2022-10-22T15:14:00.909Z,99854.48
2022-10-22T15:16:29.717Z,99850.08
2022-10-22T15:18:59.378Z,99851.38
2022-10-22T15:21:28.334Z,99852.09
2022-10-22T15:23:57.347Z,99858.11
2022-10-22T15:26:26.098Z,99858.99
2022-10-22T15:28:55.213Z,99858.59
2022-10-22T15:31:45.249Z,99860.05
2022-10-22T15:34:14.449Z,99861.68
2022-10-22T15:36:43.317Z,99859.94
2022-10-22T15:39:12.170Z,99864.07
2022-10-22T15:41:41.297Z,99866.48
2022-10-22T15:44:17.429Z,99874.81
2022-10-22T15:46:46.175Z,99873.39
2022-10-22T15:49:15.341Z,99874.13
2022-10-22T15:51:44.544Z,99873.39
2022-10-22T15:54:16.613Z,99876.94
2022-10-22T15:56:45.369Z,99879.52
2022-10-22T15:59:15.577Z,99878.55
2022-10-22T16:01:44.901Z,99887.64
2022-10-22T16:04:14.004Z,99887.43
2022-10-22T16:06:45.548Z,99885.89
2022-10-22T16:09:17.085Z,99888.54
2022-10-22T16:11:46.517Z,99889.80
2022-10-22T16:14:19.467Z,99897.48
2022-10-22T16:16:50.596Z,99896.55
2022-10-22T16:19:20.954Z,99898.27
2022-10-22T16:21:52.019Z,99891.96
2022-10-22T16:24:22.224Z,99896.77
2022-10-22T16:26:52.677Z,99899.11
2022-10-22T16:29:21.718Z,99902.13
2022-10-22T16:31:51.012Z,99904.11
2022-10-22T16:34:19.733Z,99905.71
2022-10-22T16:36:48.730Z,99907.91
2022-10-22T16:39:17.504Z,99908.64
2022-10-22T16:41:46.827Z,99910.57
2022-10-22T16:44:15.896Z,99915.12
2022-10-22T16:46:45.030Z,99917.74
2022-10-22T16:49:13.928Z,99920.41
2022-10-22T16:51:42.615Z,99921.14
2022-10-22T16:54:14.183Z,99921.57
2022-10-22T16:56:43.469Z,99925.64
2022-10-22T16:59:12.334Z,99926.08
2022-10-22T17:01:42.362Z,99925.75
2022-10-22T17:04:11.306Z,99925.16
2022-10-22T17:06:40.845Z,99926.44
2022-10-22T17:09:10.957Z,99932.42
2022-10-22T17:11:42.674Z,99930.76
2022-10-22T17:14:13.964Z,99929.95
2022-10-22T17:16:43.392Z,99932.93
2022-10-22T17:19:15.675Z,99932.60
2022-10-22T17:21:45.041Z,99934.02
2022-10-22T17:24:14.376Z,99932.15
2022-10-22T17:26:44.977Z,99934.77
2022-10-22T17:29:14.670Z,99936.10
2022-10-22T17:31:45.105Z,99937.61
2022-10-22T17:34:17.627Z,99937.38
2022-10-22T17:36:46.950Z,99933.66
2022-10-22T17:39:19.580Z,99937.45
2022-10-22T17:41:48.930Z,99936.14
2022-10-22T17:44:18.351Z,99934.29
2022-10-22T17:46:52.443Z,99931.92
2022-10-22T17:49:22.168Z,99934.66
2022-10-22T17:51:51.087Z,99932.54
2022-10-22T17:54:20.221Z,99934.23
2022-10-22T17:56:49.132Z,99932.36
2022-10-22T17:59:18.680Z,99933.47
2022-10-22T18:01:48.177Z,99932.66
2022-10-22T18:04:18.878Z,99936.98
2022-10-22T18:06:48.051Z,99935.61
2022-10-22T18:09:19.613Z,99935.98
2022-10-22T18:11:49.333Z,99937.80
2022-10-22T18:14:20.991Z,99936.47
2022-10-22T18:16:51.398Z,99938.46
2022-10-22T18:19:23.353Z,99937.51
2022-10-22T18:21:52.575Z,99936.73
2022-10-22T18:24:22.241Z,99933.91
2022-10-22T18:26:51.862Z,99933.79
2022-10-22T18:29:21.930Z,99940.03
2022-10-22T18:31:52.078Z,99941.00
2022-10-22T18:34:23.783Z,99940.88
2022-10-22T18:36:54.543Z,99940.19
2022-10-22T18:39:24.306Z,99941.27
2022-10-22T18:41:54.025Z,99940.38
2022-10-22T18:44:25.269Z,99942.77
2022-10-22T18:46:55.636Z,99945.56
2022-10-22T18:49:25.572Z,99944.36
2022-10-22T18:51:55.786Z,99946.98
2022-10-22T18:54:25.012Z,99951.25
2022-10-22T18:57:02.504Z,99951.21
2022-10-22T18:59:33.422Z,99950.60
2022-10-22T19:02:11.533Z,99956.02
2022-10-22T19:04:41.035Z,99957.48
2022-10-22T19:07:10.597Z,99954.23
2022-10-22T19:09:41.080Z,99959.83
2022-10-22T19:12:10.616Z,99958.34
2022-10-22T19:14:39.401Z,99963.21
2022-10-22T19:17:08.665Z,99967.79
2022-10-22T19:19:39.099Z,99965.77
2022-10-22T19:22:08.201Z,99973.80
2022-10-22T19:24:37.349Z,99976.95
2022-10-22T19:27:06.174Z,99975.98
2022-10-22T19:29:35.872Z,99981.36
2022-10-22T19:32:05.425Z,99984.35
2022-10-22T19:34:35.991Z,99990.02
2022-10-22T19:37:05.385Z,99992.96
2022-10-22T19:39:34.623Z,100000.98
2022-10-22T19:42:04.253Z,100000.20
2022-10-22T19:44:33.566Z,100004.83
2022-10-22T19:47:02.388Z,100009.63
2022-10-22T19:49:31.330Z,100011.73
2022-10-22T19:52:00.403Z,100021.71
2022-10-22T19:54:32.878Z,100024.16
2022-10-22T19:59:32.295Z,100028.79
2022-10-22T20:02:01.176Z,100032.01
2022-10-22T20:04:30.516Z,100035.66
2022-10-22T20:06:59.728Z,100038.38
2022-10-22T20:09:28.502Z,100038.71
2022-10-22T20:11:57.641Z,100044.96
2022-10-22T20:14:27.142Z,100049.05
2022-10-22T20:16:56.271Z,100048.39
2022-10-22T20:19:28.879Z,100050.63
2022-10-22T20:24:31.827Z,100050.89
2022-10-22T20:27:03.312Z,100052.73
2022-10-22T20:29:32.354Z,100054.65
2022-10-22T20:32:03.311Z,100057.36
2022-10-22T20:34:35.272Z,100056.19
2022-10-22T20:37:07.513Z,100058.73
2022-10-22T20:39:36.846Z,100060.23
2022-10-22T20:42:07.143Z,100064.73
2022-10-22T20:44:36.695Z,100062.73
2022-10-22T20:47:05.502Z,100071.06
2022-10-22T20:49:35.149Z,100067.61
2022-10-22T20:52:04.867Z,100068.27
2022-10-22T20:54:34.695Z,100065.58
2022-10-22T20:57:04.989Z,100068.27
2022-10-22T20:59:34.614Z,100070.41
2022-10-22T21:02:04.652Z,100077.11
2022-10-22T21:04:34.732Z,100074.00
2022-10-22T21:07:03.501Z,100083.11
2022-10-22T21:09:34.305Z,100082.10
2022-10-22T21:12:03.548Z,100086.28
2022-10-22T21:14:32.808Z,100085.63
2022-10-22T21:17:01.856Z,100084.20
2022-10-22T21:19:31.550Z,100080.81
2022-10-22T21:22:00.428Z,100084.73
2022-10-22T21:24:29.187Z,100083.64
2022-10-22T21:26:58.333Z,100090.83
2022-10-22T21:29:27.121Z,100096.20
2022-10-22T21:31:55.873Z,100097.21
2022-10-22T21:34:24.764Z,100101.40
2022-10-22T21:36:53.555Z,100094.86
2022-10-22T21:39:22.329Z,100096.04
2022-10-22T21:41:51.400Z,100096.47
2022-10-22T21:44:20.035Z,100099.58
2022-10-22T21:46:49.546Z,100103.69
2022-10-22T21:49:18.133Z,100109.15
2022-10-22T21:51:46.991Z,100109.75
2022-10-22T21:54:15.796Z,100116.70
2022-10-22T21:56:44.646Z,100113.21
2022-10-22T21:59:13.531Z,100119.35
2022-10-22T22:01:42.207Z,100120.43
2022-10-22T22:04:11.211Z,100118.75
2022-10-22T22:06:39.929Z,100119.66
2022-10-22T22:09:08.839Z,100121.53
2022-10-22T22:11:37.701Z,100120.77
2022-10-22T22:14:06.301Z,100123.23
2022-10-22T22:16:36.187Z,100123.91
2022-10-22T22:19:07.066Z,100122.90
2022-10-22T22:21:38.757Z,100122.82
2022-10-22T22:24:11.009Z,100130.91
2022-10-22T22:26:41.341Z,100132.38
2022-10-22T22:29:11.551Z,100137.92
2022-10-22T22:31:40.492Z,100137.30
2022-10-22T22:34:12.448Z,100138.55
2022-10-22T22:36:42.602Z,100140.56
2022-10-22T22:39:13.814Z,100146.22
2022-10-22T22:41:43.183Z,100148.41
2022-10-22T22:44:12.182Z,100147.80
2022-10-22T22:46:41.021Z,100145.30
2022-10-22T22:49:10.035Z,100146.70
2022-10-22T22:51:38.725Z,100146.02
2022-10-22T22:54:07.649Z,100149.83
2022-10-22T22:56:36.719Z,100143.98
2022-10-22T22:59:06.264Z,100145.38
2022-10-22T23:01:37.233Z,100145.80
2022-10-22T23:04:07.465Z,100150.27
2022-10-22T23:06:37.500Z,100149.85
2022-10-22T23:09:08.740Z,100152.35
2022-10-22T23:11:38.557Z,100151.12
2022-10-22T23:14:10.641Z,100152.89
2022-10-22T23:16:42.427Z,100157.80
2022-10-22T23:19:11.733Z,100152.79
2022-10-22T23:21:44.856Z,100154.51
2022-10-22T23:24:15.927Z,100156.58
2022-10-22T23:26:48.172Z,100156.00
2022-10-22T23:29:19.623Z,100158.76
2022-10-22T23:31:52.901Z,100159.78
2022-10-22T23:34:24.165Z,100156.21
2022-10-22T23:36:54.893Z,100157.79
2022-10-22T23:39:26.032Z,100157.46
2022-10-22T23:41:54.992Z,100157.96
2022-10-22T23:44:25.014Z,100163.59
2022-10-22T23:46:54.749Z,100163.98
2022-10-22T23:49:23.503Z,100168.33
2022-10-22T23:51:52.372Z,100170.65
2022-10-22T23:54:21.012Z,100172.00
2022-10-22T23:56:50.156Z,100173.50
2022-10-22T23:59:19.044Z,100171.22
